FMEEFMEP

Guest
Details From FMEE - St Denis Gillot
To FMEP - ST PIERRE PIERREFONDS
Flight Number -
Tags generated
Created
Modified
Stats Distance 27 nm / 50 km
Max Altitude 100 ft / 30 m
Waypoints 3
Social Downloads 31
Likes 0
Share

Download

Looking for another format? Having issues loading an existing format? Contact us
Advertisement - Login to hide

Notes

Basic altitude profile: - Ascent Rate: 2500ft/min - Ascent Speed: 250kts - Cruise Altitude: 35000ft - Cruise Speed: 420kts - Descent Rate: 1500ft/min - Descent Speed: 250kts Options: - Use NATs: yes - Use PACOTS: yes - Use low airways: yes - Use high airways: yes

Route

FMEE SDG FMEP

ID Type Via Altitude (ft/m) Position (lat/lon) Dist (leg/tot) Name
O FMEE APT - 0 / 0 -20.88931 / 55.51775 - / 0 nm St Denis Gillot
SDG VOR - 100 / 30 -20.88483 / 55.50981 0 / 0 nm ST DENIS GILLOT VOR-DME
O FMEP APT - 0 / 0 -21.32004 / 55.42358 26 / 27 nm ST PIERRE PIERREFONDS

Altitude Profile

Advertisement - Login to hide

FMEE

Details ICAO FMEE (RUN)
Name Roland Garros
Region Comoros, Mayotte, Réunion and Madagascar
Timezone Indian/Reunion (UTC+4.0)
Stats Elevation 66 ft / 20 m (AMSL)
Location -20.889300° 55.517700°
Runways 2
Magnetic Variation 18.881° W

METAR

FMEE 232330Z AUTO 18007KT 9999 SCT056 22/15 Q1017 NOSIG

Decode

TAF

TAF FMEE 231700Z 2318/2424 10007KT 9999 BKN052 TEMPO 2318/2424 SHRA=

Decode

Departure Runways

ID Width Length Bearing (true/mag) Surface Threshold Overrun Markings Lighting
12 148 ft / 45 m 10,492 ft / 3,198 m 102.28° / 121.16° ASPHALT 397 ft / 121 m 0 ft / 0 m APP CENTERLINE EDGE THRESHOLD REIL-OMNI
14 148 ft / 45 m 8,768 ft / 2,672 m 116.58° / 135.47° ASPHALT 328 ft / 100 m 0 ft / 0 m PREC-APP CENTERLINE EDGE THRESHOLD REIL-OMNI
30 148 ft / 45 m 10,492 ft / 3,198 m 282.26° / 301.15° ASPHALT 0 ft / 0 m 0 ft / 0 m APP CENTERLINE EDGE THRESHOLD REIL-OMNI
32 148 ft / 45 m 8,768 ft / 2,672 m 296.58° / 315.46° ASPHALT 1,175 ft / 358 m 0 ft / 0 m APP CENTERLINE EDGE THRESHOLD REIL-OMNI

FMEP

Details ICAO FMEP (ZSE)
Name ST PIERRE PIERREFONDS
Region Comoros, Mayotte, Réunion and Madagascar
Timezone Unknown
Stats Elevation 56 ft / 17 m (AMSL)
Location -21.319400° 55.422600°
Runways 1
Magnetic Variation 19.434° W

METAR

FMEP 232330Z AUTO 06005KT 9999 BKN035 BKN041 21/15 Q1017

Decode

TAF

Not found

Destination Runways

ID Width Length Bearing (true/mag) Surface Threshold Overrun Markings Lighting
15 133 ft / 41 m 6,900 ft / 2,103 m 129.13° / 148.56° ASPHALT 0 ft / 0 m 0 ft / 0 m APP
33 133 ft / 41 m 6,900 ft / 2,103 m 309.12° / 328.56° ASPHALT 0 ft / 0 m 0 ft / 0 m APP

Popular Alternatives